Time;durP1;ratioP1;P1;durP2;ratioP2;P2;SDS_P1;SDS_P2;PMS_P1;PMS_P2;Temp;Humidity;BMP_temperature;BMP_pressure;BME280_temperature;BME280_humidity;BME280_pressure;Samples;Min_cycle;Max_cycle;Signal;HPM_P1;HPM_P2
2024/04/10 00:00:05;;;;;;;11.02;4.40;;;17.50;1.00;;;;;;5362542;26;20008;-77
2024/04/10 00:02:31;;;;;;;10.60;4.68;;;17.50;1.00;;;;;;5362776;26;20021;-77
2024/04/10 00:04:56;;;;;;;12.70;4.50;;;17.30;99.90;;;;;;5327694;26;20039;-77
2024/04/10 00:07:22;;;;;;;8.38;4.35;;;17.20;99.90;;;;;;5259208;27;20023;-77
2024/04/10 00:09:47;;;;;;;12.80;4.57;;;17.10;99.90;;;;;;5192720;27;20045;-77
2024/04/10 00:12:13;;;;;;;12.85;4.55;;;17.00;99.90;;;;;;5192980;27;20091;-77
2024/04/10 00:14:39;;;;;;;10.27;4.75;;;17.00;99.90;;;;;;5192733;27;20011;-77
2024/04/10 00:17:04;;;;;;;11.02;4.50;;;17.00;99.90;;;;;;5192765;27;19996;-77
2024/04/10 00:19:30;;;;;;;11.38;4.50;;;16.90;99.90;;;;;;5192594;27;20355;-77
2024/04/10 00:21:57;;;;;;;13.75;5.00;;;16.90;1.00;;;;;;5192843;27;20120;-77
2024/04/10 00:24:23;;;;;;;12.40;5.18;;;17.00;1.00;;;;;;5225450;27;20028;-77
2024/04/10 00:26:49;;;;;;;10.00;4.88;;;16.90;1.00;;;;;;5216082;27;20139;-77
2024/04/10 00:29:15;;;;;;;12.20;5.03;;;16.80;8.20;;;;;;5113049;27;20332;-77
2024/04/10 00:31:41;;;;;;;16.48;5.00;;;16.80;99.90;;;;;;5119454;28;20008;-78
2024/04/10 00:34:07;;;;;;;14.70;6.18;;;16.80;99.90;;;;;;5128026;28;20012;-79
2024/04/10 00:36:33;;;;;;;14.15;7.07;;;16.80;99.90;;;;;;5216348;27;19995;-79
2024/04/10 00:38:58;;;;;;;10.55;5.25;;;16.80;99.90;;;;;;5249803;27;20007;-79
2024/04/10 00:41:24;;;;;;;12.65;6.50;;;16.80;1.00;;;;;;5283738;27;20009;-79
2024/04/10 00:43:49;;;;;;;12.02;5.57;;;16.80;1.00;;;;;;5292957;27;20411;-79
2024/04/10 00:46:21;;;;;;;10.00;5.53;;;16.80;11.70;;;;;;5225253;27;20453;-79
2024/04/10 00:48:47;;;;;;;13.07;5.65;;;16.80;99.90;;;;;;5225505;27;20384;-80
2024/04/10 00:51:20;;;;;;;11.85;6.15;;;16.70;99.90;;;;;;5160083;27;19992;-80
2024/04/10 00:53:46;;;;;;;12.35;5.72;;;16.70;99.90;;;;;;5128163;28;20001;-81
2024/04/10 00:56:12;;;;;;;13.50;7.45;;;16.60;99.90;;;;;;5128063;27;20304;-80
2024/04/10 00:58:38;;;;;;;17.20;6.38;;;16.60;1.00;;;;;;5154243;27;20007;-80
2024/04/10 01:01:05;;;;;;;18.95;6.28;;;16.60;99.90;;;;;;5201962;27;20003;-80
2024/04/10 01:03:31;;;;;;;10.75;6.55;;;16.50;99.90;;;;;;5178481;27;20000;-81
2024/04/10 01:05:58;;;;;;;11.77;5.72;;;16.50;1.00;;;;;;5211574;27;20000;-80
2024/04/10 01:08:24;;;;;;;24.25;7.10;;;16.40;1.00;;;;;;5211242;27;20000;-80
2024/04/10 01:10:50;;;;;;;13.70;5.90;;;16.40;33.10;;;;;;5177957;27;19996;-80
2024/04/10 01:13:18;;;;;;;17.40;5.97;;;16.40;99.90;;;;;;5140162;27;20001;-80
2024/04/10 01:15:44;;;;;;;20.67;6.32;;;16.30;99.90;;;;;;5113825;28;19998;-79
2024/04/10 01:18:10;;;;;;;20.83;6.10;;;16.20;99.90;;;;;;5141178;27;20005;-80
2024/04/10 01:20:37;;;;;;;14.15;6.30;;;16.10;99.90;;;;;;5145461;27;20001;-79
2024/04/10 01:23:05;;;;;;;13.45;5.53;;;16.10;99.90;;;;;;5145336;27;20008;-80
2024/04/10 01:25:31;;;;;;;15.75;6.18;;;16.00;99.90;;;;;;5197529;27;19991;-80
2024/04/10 01:27:57;;;;;;;14.50;5.43;;;16.00;99.90;;;;;;5210327;27;20447;-80
2024/04/10 01:30:23;;;;;;;15.70;6.18;;;16.00;99.90;;;;;;5184923;27;20009;-79
2024/04/10 01:32:49;;;;;;;16.80;6.22;;;15.90;99.90;;;;;;5145150;27;20044;-79
2024/04/10 01:35:15;;;;;;;14.38;5.57;;;15.80;99.90;;;;;;5144875;27;20341;-80
2024/04/10 01:37:40;;;;;;;14.23;5.95;;;15.80;99.90;;;;;;5145425;27;20004;-79
2024/04/10 01:40:06;;;;;;;15.65;6.03;;;15.80;99.90;;;;;;5145077;27;19993;-79
2024/04/10 01:42:32;;;;;;;15.10;5.25;;;15.80;99.90;;;;;;5177891;27;19997;-79
2024/04/10 01:44:59;;;;;;;14.32;5.65;;;15.70;99.90;;;;;;5202310;27;20483;-79
2024/04/10 01:47:24;;;;;;;16.33;4.85;;;15.60;99.90;;;;;;5177281;27;20008;-78
2024/04/10 01:49:50;;;;;;;11.25;4.65;;;15.50;99.90;;;;;;5177152;27;20009;-78
2024/04/10 01:52:16;;;;;;;18.88;5.40;;;15.60;99.90;;;;;;5144705;27;20062;-78
2024/04/10 01:54:41;;;;;;;12.15;4.72;;;15.60;99.90;;;;;;5144871;27;19997;-78
2024/04/10 01:57:07;;;;;;;12.25;5.28;;;15.50;99.90;;;;;;5099377;27;19998;-78
2024/04/10 01:59:32;;;;;;;14.00;4.90;;;15.50;99.90;;;;;;5122112;27;20036;-78
2024/04/10 02:01:58;;;;;;;14.40;5.25;;;15.40;99.90;;;;;;5177292;27;20435;-79
2024/04/10 02:04:24;;;;;;;11.68;5.10;;;15.40;99.90;;;;;;5200697;27;19995;-80
2024/04/10 02:06:49;;;;;;;11.57;4.70;;;15.30;99.90;;;;;;5186743;27;20012;-80
2024/04/10 02:09:15;;;;;;;10.20;4.90;;;15.30;99.90;;;;;;5209750;27;19992;-80
2024/04/10 02:11:41;;;;;;;17.02;5.75;;;15.30;99.90;;;;;;5210000;27;20079;-78
2024/04/10 02:14:07;;;;;;;15.80;5.57;;;15.20;99.90;;;;;;5233935;27;19999;-78
2024/04/10 02:16:32;;;;;;;13.57;5.05;;;15.20;99.90;;;;;;5243513;27;20074;-78
2024/04/10 02:18:58;;;;;;;10.45;4.68;;;15.20;99.90;;;;;;5243001;27;19995;-78
2024/04/10 02:21:24;;;;;;;16.98;4.90;;;15.20;99.90;;;;;;5196510;27;20021;-78
2024/04/10 02:23:50;;;;;;;13.23;5.55;;;15.20;99.90;;;;;;5235023;27;19999;-78
2024/04/10 02:26:15;;;;;;;11.05;5.05;;;15.10;99.90;;;;;;5276835;27;19999;-78
2024/04/10 02:28:41;;;;;;;11.80;4.80;;;15.00;99.90;;;;;;5276637;27;20462;-77
2024/04/10 02:31:07;;;;;;;12.63;4.63;;;15.00;99.90;;;;;;5277348;27;20010;-78
2024/04/10 02:33:37;;;;;;;13.30;5.13;;;15.00;99.90;;;;;;5276616;27;20009;-78
2024/04/10 02:36:03;;;;;;;13.18;5.20;;;15.00;99.90;;;;;;5276823;27;20443;-79
2024/04/10 02:38:29;;;;;;;10.07;4.93;;;15.00;99.90;;;;;;5276512;27;20009;-78
2024/04/10 02:40:56;;;;;;;11.07;4.93;;;15.10;99.90;;;;;;5355651;26;19996;-79
2024/04/10 02:43:22;;;;;;;9.90;5.38;;;15.10;99.90;;;;;;5380677;26;20032;-79
2024/04/10 02:46:02;;;;;;;16.52;5.40;;;15.10;99.90;;;;;;5380453;26;20398;-77
2024/04/10 02:48:28;;;;;;;11.32;4.68;;;15.10;99.90;;;;;;5345326;26;19997;-78
2024/04/10 02:50:54;;;;;;;11.05;4.68;;;15.10;99.90;;;;;;5276453;27;20089;-79
2024/04/10 02:53:20;;;;;;;10.32;4.47;;;15.00;99.90;;;;;;5276690;27;20365;-78
2024/04/10 02:55:47;;;;;;;7.50;4.10;;;15.00;99.90;;;;;;5272066;27;20049;-77
2024/04/10 02:58:12;;;;;;;9.77;4.13;;;14.90;99.90;;;;;;5209706;27;20464;-77
2024/04/10 03:00:48;;;;;;;6.65;3.95;;;14.90;99.90;;;;;;5209477;27;20002;-77
2024/04/10 03:03:14;;;;;;;8.93;3.92;;;14.80;99.90;;;;;;5209829;27;19996;-76
2024/04/10 03:05:40;;;;;;;8.02;3.55;;;14.80;99.90;;;;;;5209474;27;20027;-77
2024/04/10 03:08:06;;;;;;;7.95;4.22;;;14.80;99.90;;;;;;5209093;27;20000;-77
2024/04/10 03:10:31;;;;;;;11.73;4.00;;;14.80;99.90;;;;;;5209553;27;20336;-77
2024/04/10 03:12:57;;;;;;;17.65;4.30;;;14.80;99.90;;;;;;5209249;27;20184;-77
2024/04/10 03:15:23;;;;;;;10.80;4.65;;;14.70;99.90;;;;;;5209158;27;20007;-77
2024/04/10 03:17:48;;;;;;;7.47;3.97;;;14.80;99.90;;;;;;5209342;27;19999;-77
2024/04/10 03:20:14;;;;;;;8.90;3.42;;;14.70;99.90;;;;;;5235802;27;20069;-77
2024/04/10 03:22:40;;;;;;;10.90;4.00;;;14.70;99.90;;;;;;5242000;27;20038;-77
2024/04/10 03:25:06;;;;;;;7.80;3.42;;;14.60;99.90;;;;;;5242608;27;19999;-77
2024/04/10 03:27:32;;;;;;;9.52;3.70;;;14.60;99.90;;;;;;5257766;26;19997;-78
2024/04/10 03:29:58;;;;;;;6.20;3.15;;;14.60;99.90;;;;;;5344410;26;20024;-79
2024/04/10 03:32:24;;;;;;;10.18;3.80;;;14.60;99.90;;;;;;5395577;26;19992;-79
2024/04/10 03:34:49;;;;;;;11.18;3.95;;;14.50;99.90;;;;;;5379626;26;20000;-79
2024/04/10 03:37:15;;;;;;;13.13;4.15;;;14.50;99.90;;;;;;5379640;26;20024;-79
2024/04/10 03:39:42;;;;;;;7.43;4.45;;;14.40;99.90;;;;;;5379065;26;19988;-77
2024/04/10 03:42:08;;;;;;;6.50;4.28;;;14.40;99.90;;;;;;5379188;26;20335;-77
2024/04/10 03:44:35;;;;;;;5.88;3.90;;;14.40;99.90;;;;;;5379119;26;20008;-77
2024/04/10 03:47:01;;;;;;;16.70;4.32;;;14.30;99.90;;;;;;5309838;27;20017;-77
2024/04/10 03:49:27;;;;;;;10.02;4.60;;;14.30;99.90;;;;;;5309799;26;20004;-81
2024/04/10 03:51:53;;;;;;;6.05;4.50;;;14.30;99.90;;;;;;5241834;27;20018;-78
2024/04/10 03:54:18;;;;;;;10.98;4.47;;;14.30;99.90;;;;;;5292633;27;20409;-78
2024/04/10 03:56:44;;;;;;;7.55;4.63;;;14.30;99.90;;;;;;5274869;27;20050;-77
2024/04/10 03:59:29;;;;;;;8.90;4.90;;;14.30;99.90;;;;;;5276299;27;20002;-77
2024/04/10 04:01:57;;;;;;;8.95;4.60;;;14.20;99.90;;;;;;5274938;27;20057;-77
2024/04/10 04:04:23;;;;;;;8.95;4.95;;;14.10;99.90;;;;;;5275493;27;20006;-79
2024/04/10 04:06:49;;;;;;;8.88;5.22;;;14.10;99.90;;;;;;5275709;27;20508;-78
2024/04/10 04:09:14;;;;;;;7.90;4.70;;;14.20;99.90;;;;;;5275165;27;20437;-78
2024/04/10 04:11:40;;;;;;;7.97;4.97;;;14.10;99.90;;;;;;5241441;27;20019;-78
2024/04/10 04:14:07;;;;;;;11.15;4.30;;;14.00;99.90;;;;;;5241408;27;20091;-78
2024/04/10 04:16:32;;;;;;;7.85;4.47;;;14.00;99.90;;;;;;5233476;27;20010;-78
2024/04/10 04:18:58;;;;;;;10.68;4.55;;;14.00;99.90;;;;;;5175540;27;20364;-78
2024/04/10 04:21:24;;;;;;;7.95;4.47;;;14.00;99.90;;;;;;5208192;27;20360;-78
2024/04/10 04:23:50;;;;;;;8.40;4.38;;;14.00;99.90;;;;;;5266383;27;19994;-78
2024/04/10 04:26:16;;;;;;;6.18;3.95;;;14.00;99.90;;;;;;5275364;27;20394;-78
2024/04/10 04:28:42;;;;;;;8.82;4.25;;;14.10;99.90;;;;;;5304868;27;20033;-79
2024/04/10 04:31:07;;;;;;;10.25;4.13;;;14.10;99.90;;;;;;5234279;27;19996;-78
2024/04/10 04:33:33;;;;;;;9.02;3.80;;;14.10;99.90;;;;;;5300418;27;19993;-77
2024/04/10 04:35:58;;;;;;;6.13;3.80;;;14.10;99.90;;;;;;5310816;27;20513;-77
2024/04/10 04:38:24;;;;;;;6.97;4.22;;;14.10;99.90;;;;;;5210933;27;20316;-77
2024/04/10 04:40:50;;;;;;;11.82;4.10;;;14.20;99.90;;;;;;5211302;27;20562;-77
2024/04/10 04:43:16;;;;;;;9.70;3.92;;;14.20;99.90;;;;;;5211540;27;20428;-77
2024/04/10 04:45:42;;;;;;;8.02;4.07;;;14.30;99.90;;;;;;5211371;27;20007;-76
2024/04/10 04:48:09;;;;;;;7.65;3.80;;;14.30;99.90;;;;;;5178186;27;20341;-76
2024/04/10 04:50:35;;;;;;;8.82;4.15;;;14.30;99.90;;;;;;5207819;27;20396;-76
2024/04/10 04:53:01;;;;;;;9.82;4.85;;;14.40;99.90;;;;;;5277922;27;19998;-76
2024/04/10 04:55:27;;;;;;;6.38;3.85;;;14.40;99.90;;;;;;5277866;27;19990;-79
2024/04/10 04:57:53;;;;;;;7.80;5.07;;;14.50;99.90;;;;;;5213729;27;20008;-78
2024/04/10 05:00:20;;;;;;;8.85;4.82;;;14.40;99.90;;;;;;5177798;27;20008;-78
2024/04/10 05:02:46;;;;;;;8.35;5.07;;;14.50;99.90;;;;;;5145634;27;20465;-78
2024/04/10 05:05:17;;;;;;;10.02;4.38;;;14.50;99.90;;;;;;5097821;27;20358;-78
2024/04/10 05:07:43;;;;;;;9.88;4.90;;;14.50;99.90;;;;;;5082227;28;20014;-78
2024/04/10 05:10:11;;;;;;;8.48;4.60;;;14.50;99.90;;;;;;5081569;27;20005;-77
2024/04/10 05:12:38;;;;;;;8.30;4.05;;;14.60;99.90;;;;;;5081692;28;20542;-78
2024/04/10 05:15:06;;;;;;;7.82;4.60;;;14.60;99.90;;;;;;5082074;28;20003;-77
2024/04/10 05:17:32;;;;;;;10.00;4.85;;;14.70;99.90;;;;;;5081883;28;20002;-78
2024/04/10 05:19:58;;;;;;;8.32;4.57;;;14.70;96.80;;;;;;5134304;27;20525;-79
2024/04/10 05:22:23;;;;;;;12.18;4.90;;;14.70;91.40;;;;;;5145818;27;20149;-78
2024/04/10 05:24:49;;;;;;;9.73;4.57;;;14.60;86.70;;;;;;5146026;27;20394;-77
2024/04/10 05:27:25;;;;;;;13.07;4.32;;;14.60;69.00;;;;;;5145247;27;20073;-77
2024/04/10 05:29:55;;;;;;;11.77;5.10;;;14.60;61.40;;;;;;5174106;27;20000;-77
2024/04/10 05:32:20;;;;;;;8.85;4.50;;;14.70;31.60;;;;;;5178248;27;19996;-78
2024/04/10 05:34:46;;;;;;;11.32;4.50;;;14.80;6.20;;;;;;5304330;27;20004;-78
2024/04/10 05:37:11;;;;;;;8.82;4.45;;;14.80;1.00;;;;;;5319880;26;19997;-76
2024/04/10 05:39:37;;;;;;;10.50;4.40;;;14.80;1.00;;;;;;5346069;26;19997;-78
2024/04/10 05:42:06;;;;;;;10.93;4.50;;;14.80;1.00;;;;;;5405749;26;19992;-77
2024/04/10 05:44:32;;;;;;;8.68;4.32;;;14.80;1.00;;;;;;5416549;26;20019;-77
2024/04/10 05:47:00;;;;;;;8.02;4.22;;;14.80;1.00;;;;;;5345610;26;20387;-77
2024/04/10 05:49:25;;;;;;;12.73;4.50;;;14.90;1.00;;;;;;5345959;26;20004;-77
2024/04/10 05:51:51;;;;;;;12.18;4.50;;;15.00;1.00;;;;;;5345917;26;20023;-77
2024/04/10 05:54:16;;;;;;;7.68;4.05;;;15.00;1.00;;;;;;5380329;26;19996;-77
2024/04/10 05:56:42;;;;;;;7.43;4.18;;;15.00;1.00;;;;;;5380943;26;20416;-76
2024/04/10 05:59:08;;;;;;;9.20;3.60;;;14.90;1.00;;;;;;5351336;26;19996;-78
2024/04/10 06:01:34;;;;;;;7.25;3.88;;;15.00;1.00;;;;;;5346083;26;20082;-79
2024/04/10 06:04:00;;;;;;;7.40;3.42;;;15.00;1.00;;;;;;5345936;26;19993;-77
2024/04/10 06:06:26;;;;;;;10.63;3.22;;;15.00;99.90;;;;;;5319635;26;19997;-78
2024/04/10 06:08:52;;;;;;;6.53;3.22;;;14.90;99.90;;;;;;5311598;27;20001;-73
2024/04/10 06:11:17;;;;;;;9.45;3.20;;;15.00;99.90;;;;;;5311627;27;20008;-77
2024/04/10 06:13:51;;;;;;;8.07;3.10;;;15.00;99.90;;;;;;5311502;27;19994;-78
2024/04/10 06:16:19;;;;;;;12.07;5.63;;;15.00;99.90;;;;;;5311611;27;20045;-78
2024/04/10 06:18:44;;;;;;;8.10;3.28;;;15.10;99.90;;;;;;5311713;27;20100;-78
2024/04/10 06:21:10;;;;;;;5.75;2.05;;;15.10;99.90;;;;;;5310866;27;20373;-79
2024/04/10 06:23:35;;;;;;;5.03;2.25;;;15.10;7.60;;;;;;5311138;27;20155;-81
2024/04/10 06:26:02;;;;;;;10.18;2.35;;;15.00;1.00;;;;;;5311143;27;20413;-80
2024/04/10 06:28:28;;;;;;;10.82;2.70;;;15.00;1.00;;;;;;5276598;27;20013;-81
2024/04/10 06:31:01;;;;;;;10.18;2.38;;;15.00;99.90;;;;;;5209961;27;20424;-80
2024/04/10 06:33:28;;;;;;;7.53;1.75;;;15.00;99.90;;;;;;5209967;27;20006;-80
2024/04/10 06:35:54;;;;;;;7.13;1.77;;;15.00;99.90;;;;;;5176804;27;20428;-80
2024/04/10 06:38:19;;;;;;;5.72;1.60;;;15.10;1.00;;;;;;5177043;27;20071;-82
2024/04/10 06:40:57;;;;;;;4.55;1.50;;;15.10;1.00;;;;;;5233275;27;20066;-81
2024/04/10 06:43:23;;;;;;;5.85;1.50;;;15.00;99.90;;;;;;5243875;27;20442;-81
2024/04/10 06:45:56;;;;;;;9.30;1.33;;;14.90;99.90;;;;;;5243238;27;20007;-82
2024/04/10 06:48:22;;;;;;;6.55;1.50;;;14.80;99.90;;;;;;5243022;27;19994;-79
2024/04/10 06:50:47;;;;;;;7.75;1.63;;;14.90;1.00;;;;;;5210128;27;20071;-80
2024/04/10 06:53:15;;;;;;;9.68;1.80;;;14.70;99.90;;;;;;5209592;27;20006;-79
2024/04/10 06:55:40;;;;;;;6.63;1.40;;;14.70;99.90;;;;;;5176767;27;19996;-79
2024/04/10 06:58:06;;;;;;;5.88;1.48;;;14.60;99.90;;;;;;5145900;27;19997;-79
2024/04/10 07:00:33;;;;;;;6.35;2.00;;;14.60;71.10;;;;;;5204406;27;20007;-79
2024/04/10 07:02:59;;;;;;;6.68;1.65;;;14.70;1.00;;;;;;5271966;27;20422;-78
2024/04/10 07:05:24;;;;;;;5.93;1.90;;;14.80;1.00;;;;;;5276729;27;20018;-79
2024/04/10 07:07:50;;;;;;;7.22;1.98;;;14.80;1.00;;;;;;5335844;26;19993;-80
2024/04/10 07:10:15;;;;;;;12.88;2.05;;;14.90;1.00;;;;;;5310204;27;19998;-81
2024/04/10 07:12:41;;;;;;;8.52;2.03;;;14.90;1.00;;;;;;5310868;27;20005;-82
2024/04/10 07:15:07;;;;;;;7.90;1.55;;;14.90;99.90;;;;;;5310971;27;20009;-82
2024/04/10 07:17:33;;;;;;;15.15;2.88;;;15.00;99.90;;;;;;5310344;27;20196;-79
2024/04/10 07:19:58;;;;;;;4.90;1.70;;;15.20;99.90;;;;;;5310763;27;20017;-78
2024/04/10 07:22:24;;;;;;;7.88;1.65;;;15.30;99.90;;;;;;5251984;27;19991;-82
2024/04/10 07:24:50;;;;;;;4.78;1.52;;;15.10;99.90;;;;;;5243322;27;20011;-83
2024/04/10 07:27:15;;;;;;;13.30;2.10;;;15.10;99.90;;;;;;5266936;27;20006;-82
2024/04/10 07:29:43;;;;;;;8.52;1.80;;;15.10;99.90;;;;;;5276229;27;20005;-80
2024/04/10 07:32:09;;;;;;;8.15;2.17;;;15.20;99.90;;;;;;5242651;27;19991;-82
2024/04/10 07:34:35;;;;;;;6.63;1.90;;;15.50;99.90;;;;;;5243014;27;20047;-79
2024/04/10 07:37:03;;;;;;;6.88;2.17;;;15.50;99.90;;;;;;5276808;27;20005;-77
2024/04/10 07:39:29;;;;;;;5.32;1.92;;;15.50;99.90;;;;;;5275987;27;20023;-77
2024/04/10 07:41:54;;;;;;;11.82;2.08;;;15.60;99.90;;;;;;5275887;27;20041;-78
2024/04/10 07:44:20;;;;;;;4.82;1.63;;;15.60;99.90;;;;;;5275889;27;20010;-79
2024/04/10 07:46:46;;;;;;;6.82;1.83;;;15.60;95.10;;;;;;5301336;27;20356;-79
2024/04/10 07:49:13;;;;;;;7.43;2.00;;;15.50;77.50;;;;;;5309950;26;20474;-78
2024/04/10 07:51:38;;;;;;;4.82;1.40;;;15.70;47.20;;;;;;5309883;27;20328;-79
2024/04/10 07:54:04;;;;;;;4.88;1.67;;;15.70;34.00;;;;;;5335770;26;19989;-77
2024/04/10 07:56:29;;;;;;;9.57;2.28;;;15.80;18.10;;;;;;5344290;26;20004;-81
2024/04/10 07:58:55;;;;;;;6.38;1.33;;;15.80;11.00;;;;;;5309746;27;19994;-80
2024/04/10 08:01:22;;;;;;;4.43;1.60;;;15.90;1.00;;;;;;5241642;27;20006;-78
2024/04/10 08:03:47;;;;;;;4.68;1.58;;;15.90;1.00;;;;;;5217030;27;20570;-76
2024/04/10 08:06:13;;;;;;;7.90;1.73;;;15.90;1.00;;;;;;5208506;27;20040;-76
2024/04/10 08:08:39;;;;;;;8.35;2.25;;;16.00;1.00;;;;;;5160009;27;20066;-75
2024/04/10 08:11:11;;;;;;;4.93;1.35;;;16.10;1.00;;;;;;5194256;27;20464;-75
2024/04/10 08:13:37;;;;;;;7.38;1.85;;;16.10;1.00;;;;;;5212185;27;20344;-75
2024/04/10 08:16:06;;;;;;;5.03;1.55;;;16.30;1.00;;;;;;5212150;27;20006;-73
2024/04/10 08:18:37;;;;;;;9.43;1.67;;;16.50;1.00;;;;;;5212000;27;20351;-74
2024/04/10 08:21:06;;;;;;;8.20;1.60;;;16.70;1.00;;;;;;5212538;27;19995;-73
2024/04/10 08:23:33;;;;;;;4.60;1.50;;;16.50;99.90;;;;;;5245189;27;20010;-82
2024/04/10 08:26:00;;;;;;;4.72;1.70;;;16.40;99.90;;;;;;5278413;27;20037;-79
2024/04/10 08:28:26;;;;;;;5.75;1.50;;;16.60;99.90;;;;;;5278598;27;20068;-80
2024/04/10 08:30:54;;;;;;;5.43;1.48;;;16.60;99.90;;;;;;5286027;27;19998;-78
2024/04/10 08:33:20;;;;;;;10.27;2.08;;;16.60;99.90;;;;;;5335469;26;20032;-80
2024/04/10 08:35:52;;;;;;;6.25;1.77;;;16.80;99.90;;;;;;5312584;27;19996;-83
2024/04/10 08:38:18;;;;;;;7.38;2.28;;;16.90;99.90;;;;;;5312650;27;19997;-82
2024/04/10 08:40:45;;;;;;;7.25;1.75;;;17.00;99.90;;;;;;5278061;27;20322;-85
2024/04/10 08:43:13;;;;;;;9.00;2.60;;;17.10;99.90;;;;;;5244930;27;19995;-84
2024/04/10 08:45:39;;;;;;;5.22;2.20;;;17.40;99.90;;;;;;5245017;27;19995;-83
2024/04/10 08:48:05;;;;;;;5.45;1.75;;;17.30;99.90;;;;;;5244466;27;20010;-83
2024/04/10 08:50:33;;;;;;;9.15;2.40;;;17.40;99.90;;;;;;5243554;27;19999;-82
2024/04/10 08:52:59;;;;;;;8.73;2.30;;;17.30;99.90;;;;;;5177009;27;20001;-82
2024/04/10 08:55:27;;;;;;;7.43;1.88;;;17.60;99.90;;;;;;5003744;28;20004;-79
2024/04/10 08:57:52;;;;;;;6.60;1.52;;;17.60;99.90;;;;;;5039534;28;19999;-83
2024/04/10 09:00:18;;;;;;;4.72;1.58;;;17.70;99.90;;;;;;5049471;28;20521;-82
2024/04/10 09:02:43;;;;;;;9.10;4.40;;;17.60;99.90;;;;;;5050043;28;20003;-82
2024/04/10 09:05:09;;;;;;;5.70;2.00;;;17.40;99.90;;;;;;5049427;28;20495;-81
2024/04/10 09:07:35;;;;;;;9.57;2.53;;;17.60;99.90;;;;;;5073963;28;20382;-84
2024/04/10 09:10:08;;;;;;;6.10;2.10;;;17.40;99.90;;;;;;5081780;28;20443;-83
2024/04/10 09:12:34;;;;;;;5.30;1.63;;;17.50;99.90;;;;;;5081660;28;20094;-82
2024/04/10 09:15:11;;;;;;;8.30;1.85;;;17.50;99.90;;;;;;5113663;28;20014;-81
2024/04/10 09:17:36;;;;;;;6.03;1.92;;;17.40;99.90;;;;;;5120710;27;19997;-83
2024/04/10 09:20:21;;;;;;;8.25;1.75;;;17.70;99.90;;;;;;5145263;27;20474;-82
2024/04/10 09:22:58;;;;;;;5.32;1.33;;;17.80;99.90;;;;;;5112790;28;20077;-80
2024/04/10 09:25:23;;;;;;;10.85;2.30;;;17.80;99.90;;;;;;5116685;27;20346;-80
2024/04/10 09:28:00;;;;;;;5.60;1.67;;;17.50;99.90;;;;;;5178412;27;20000;-80
2024/04/10 09:30:26;;;;;;;6.00;1.88;;;17.30;99.90;;;;;;5210011;27;20010;-83
2024/04/10 09:32:53;;;;;;;5.00;1.25;;;17.40;99.90;;;;;;5210610;27;19999;-82
2024/04/10 09:35:20;;;;;;;6.75;1.95;;;17.50;99.90;;;;;;5173910;27;20070;-81
2024/04/10 09:37:49;;;;;;;4.35;1.77;;;17.40;99.90;;;;;;5149318;27;19996;-81
2024/04/10 09:40:15;;;;;;;4.45;1.45;;;17.40;99.90;;;;;;5183430;27;19995;-82
2024/04/10 09:42:46;;;;;;;5.80;1.40;;;17.30;99.90;;;;;;5210900;27;20000;-82
2024/04/10 09:45:17;;;;;;;6.30;1.35;;;17.30;99.90;;;;;;5201587;27;20013;-82
2024/04/10 09:47:44;;;;;;;7.13;1.63;;;17.50;99.90;;;;;;5145779;27;20001;-81
2024/04/10 09:50:17;;;;;;;6.47;2.90;;;17.60;99.90;;;;;;5210190;27;19999;-82
2024/04/10 09:52:44;;;;;;;7.47;1.52;;;17.90;99.90;;;;;;5209996;27;20007;-82
2024/04/10 09:55:11;;;;;;;5.00;1.55;;;18.00;99.90;;;;;;5178273;27;20045;-83
2024/04/10 09:57:37;;;;;;;7.35;1.50;;;18.60;99.90;;;;;;5177508;27;19997;-82
2024/04/10 10:00:04;;;;;;;4.93;1.58;;;18.60;99.90;;;;;;5145650;27;20012;-82
2024/04/10 10:02:30;;;;;;;6.60;1.77;;;18.90;99.90;;;;;;5177534;27;20321;-82
2024/04/10 10:04:55;;;;;;;7.65;1.75;;;19.10;99.90;;;;;;5177993;27;20036;-83
2024/04/10 10:07:22;;;;;;;6.18;1.65;;;19.10;99.90;;;;;;5237638;27;20440;-82
2024/04/10 10:09:48;;;;;;;4.78;1.58;;;19.10;99.90;;;;;;5246579;27;20363;-83
2024/04/10 10:12:26;;;;;;;5.35;1.45;;;19.00;99.90;;;;;;5210258;27;20000;-82
2024/04/10 10:14:52;;;;;;;6.03;1.52;;;19.20;99.90;;;;;;5211023;27;20020;-81
2024/04/10 10:17:26;;;;;;;13.30;2.90;;;18.90;99.90;;;;;;5207845;27;20003;-81
2024/04/10 10:19:52;;;;;;;6.25;1.58;;;19.00;99.90;;;;;;5210591;27;20000;-81
2024/04/10 10:22:18;;;;;;;5.25;1.67;;;19.30;99.90;;;;;;5116339;27;20001;-82
2024/04/10 10:24:44;;;;;;;7.05;1.52;;;19.10;99.90;;;;;;5113284;28;20006;-82
2024/04/10 10:27:09;;;;;;;7.78;1.50;;;19.10;99.90;;;;;;5144707;27;20048;-81
2024/04/10 10:29:36;;;;;;;5.97;1.77;;;18.90;99.90;;;;;;5149007;27;19993;-82
2024/04/10 10:32:09;;;;;;;6.30;1.80;;;18.60;99.90;;;;;;5144894;27;20033;-78
2024/04/10 10:34:34;;;;;;;4.70;1.65;;;18.40;99.90;;;;;;5143761;27;20001;-80
2024/04/10 10:37:06;;;;;;;4.32;1.55;;;18.00;99.90;;;;;;5144618;27;20029;-79
2024/04/10 10:39:32;;;;;;;6.18;1.40;;;18.20;99.90;;;;;;5177237;27;20122;-81
2024/04/10 10:42:02;;;;;;;6.20;1.25;;;18.30;99.90;;;;;;5209856;27;19992;-80
2024/04/10 10:44:28;;;;;;;3.60;1.27;;;18.60;95.00;;;;;;5241584;27;20431;-80
2024/04/10 10:46:57;;;;;;;4.85;1.42;;;18.70;88.90;;;;;;5177215;27;20021;-92
2024/04/10 10:49:25;;;;;;;6.53;1.00;;;18.50;63.90;;;;;;5209329;27;20057;-91
2024/04/10 10:51:52;;;;;;;3.95;0.98;;;18.40;58.20;;;;;;5211542;27;20324;-93
2024/04/10 10:54:18;;;;;;;4.25;1.08;;;18.40;45.00;;;;;;5212244;27;19995;-91
2024/04/10 10:56:43;;;;;;;3.00;1.00;;;18.50;42.20;;;;;;5212256;27;20121;-92
2024/04/10 10:59:10;;;;;;;5.03;0.95;;;18.70;24.40;;;;;;5239109;27;20007;-89
2024/04/10 11:01:36;;;;;;;4.70;1.02;;;19.00;20.00;;;;;;5272974;27;20030;-95
2024/04/10 11:04:14;;;;;;;2.85;0.95;;;19.10;14.90;;;;;;5179070;27;19996;-94
2024/04/10 11:06:40;;;;;;;4.35;1.35;;;19.20;12.10;;;;;;5180305;27;20000;-93
2024/04/10 11:09:13;;;;;;;3.88;1.30;;;19.50;9.20;;;;;;5179048;27;20000;-93
2024/04/10 11:11:39;;;;;;;6.30;1.90;;;19.60;12.50;;;;;;5148812;27;20039;-93
2024/04/10 11:14:06;;;;;;;5.38;1.25;;;19.80;6.40;;;;;;5147368;27;20012;-94
2024/04/10 11:16:32;;;;;;;8.63;2.60;;;19.60;1.90;;;;;;5182491;27;20011;-91
2024/04/10 11:19:00;;;;;;;10.50;5.60;;;19.60;7.30;;;;;;5242353;27;19999;-88
2024/04/10 11:21:26;;;;;;;5.70;1.75;;;19.50;9.30;;;;;;5248102;27;20023;-89
2024/04/10 11:23:52;;;;;;;6.13;2.00;;;19.00;16.10;;;;;;5246739;27;20002;-92
2024/04/10 11:26:18;;;;;;;7.10;1.60;;;19.10;34.00;;;;;;5244132;27;19999;-89
2024/04/10 11:28:46;;;;;;;8.73;2.00;;;18.80;40.40;;;;;;5305044;27;20441;-88
2024/04/10 11:31:11;;;;;;;5.35;1.77;;;19.10;48.30;;;;;;5277396;27;20600;-89
2024/04/10 11:33:37;;;;;;;5.50;1.60;;;19.10;40.60;;;;;;5311810;27;20001;-90
2024/04/10 11:36:03;;;;;;;5.93;1.77;;;19.10;45.40;;;;;;5378239;26;20042;-92
2024/04/10 11:38:29;;;;;;;6.97;1.40;;;18.80;52.00;;;;;;5381204;26;20004;-91
2024/04/10 11:40:55;;;;;;;3.30;1.17;;;18.90;63.50;;;;;;5381419;26;20032;-93
2024/04/10 11:43:20;;;;;;;7.05;2.03;;;18.80;61.90;;;;;;5382820;26;19992;-94
2024/04/10 11:45:46;;;;;;;5.45;1.73;;;18.90;52.50;;;;;;5381795;26;19989;-95
2024/04/10 11:48:12;;;;;;;7.55;1.70;;;19.00;53.30;;;;;;5378129;26;19988;-95
2024/04/10 11:50:37;;;;;;;4.32;1.48;;;19.20;44.00;;;;;;5312886;27;20001;-94
2024/04/10 11:53:03;;;;;;;4.55;1.52;;;19.10;45.60;;;;;;5313926;27;20071;-94
2024/04/10 11:55:29;;;;;;;4.57;1.48;;;18.70;47.30;;;;;;5312822;27;19994;-91
2024/04/10 11:57:55;;;;;;;5.47;1.48;;;18.40;47.60;;;;;;5312427;27;20009;-93
2024/04/10 12:00:20;;;;;;;8.82;2.05;;;18.30;49.90;;;;;;5311896;27;20002;-94
2024/04/10 12:02:46;;;;;;;6.22;1.58;;;18.10;52.20;;;;;;5348448;26;19982;-94
2024/04/10 12:05:12;;;;;;;4.03;1.13;;;17.80;54.80;;;;;;5342957;26;20009;-95
2024/04/10 12:07:40;;;;;;;6.72;1.90;;;17.90;38.20;;;;;;5333928;27;19997;-93
2024/04/10 12:10:07;;;;;;;8.85;1.88;;;18.10;46.40;;;;;;5333579;27;19992;-92
2024/04/10 12:12:33;;;;;;;3.95;1.45;;;17.50;61.40;;;;;;5332534;27;19986;-92
2024/04/10 12:14:58;;;;;;;5.50;1.67;;;17.50;73.00;;;;;;5273237;27;20062;-89
2024/04/10 12:17:24;;;;;;;6.45;1.58;;;17.60;61.80;;;;;;5317326;26;20002;-92
2024/04/10 12:19:49;;;;;;;7.40;1.60;;;17.50;49.10;;;;;;5334509;26;19989;-93
2024/04/10 12:22:15;;;;;;;5.95;1.10;;;17.30;61.10;;;;;;5265568;27;20066;-93
2024/04/10 12:24:41;;;;;;;4.80;1.55;;;17.10;83.60;;;;;;5245933;27;19999;-92
2024/04/10 12:27:07;;;;;;;3.38;1.33;;;16.90;91.40;;;;;;5278974;27;20002;-94
2024/04/10 12:29:33;;;;;;;3.97;1.83;;;16.90;97.80;;;;;;5278963;27;20006;-94
2024/04/10 12:31:59;;;;;;;4.90;1.75;;;17.10;91.60;;;;;;5304400;27;20009;-94
2024/04/10 12:34:25;;;;;;;6.88;1.80;;;17.10;92.20;;;;;;5313053;27;19998;-93
2024/04/10 12:39:36;;;;;;;8.60;2.13;;;16.80;98.00;;;;;;5313181;27;20131;-92
2024/04/10 12:42:04;;;;;;;11.23;1.75;;;16.70;99.90;;;;;;5311636;27;19998;-93
2024/04/10 12:44:30;;;;;;;3.45;1.20;;;16.50;99.90;;;;;;5243397;27;20010;-93